TimeEDT,TemperatureF,Dew PointF,Humidity,Sea Level PressureIn,VisibilityMPH,Wind Direction,Wind SpeedMPH,Gust SpeedMPH,PrecipitationIn,Events,Conditions,WindDirDegrees,DateUTC
12:53 AM,78.1,71.1,79,30.11,10.0,WSW,3.5,-,N/A,,Clear,250,2013-07-22 04:53:00
1:53 AM,78.1,72.0,81,30.10,10.0,WSW,6.9,-,N/A,,Clear,250,2013-07-22 05:53:00
2:53 AM,77.0,71.1,82,30.09,10.0,SW,3.5,-,N/A,,Clear,230,2013-07-22 06:53:00
3:53 AM,77.0,72.0,84,30.09,10.0,Calm,Calm,-,N/A,,Clear,0,2013-07-22 07:53:00
4:53 AM,78.1,72.0,81,30.09,10.0,South,4.6,-,N/A,,Clear,190,2013-07-22 08:53:00
5:53 AM,78.1,72.0,81,30.10,10.0,SSW,4.6,-,N/A,,Scattered Clouds,210,2013-07-22 09:53:00
6:53 AM,79.0,73.0,82,30.11,10.0,SSW,4.6,-,N/A,,Scattered Clouds,210,2013-07-22 10:53:00
7:53 AM,81.0,73.9,79,30.12,10.0,SW,4.6,-,N/A,,Partly Cloudy,220,2013-07-22 11:53:00
8:53 AM,84.0,75.0,74,30.14,10.0,SW,5.8,-,N/A,,Clear,220,2013-07-22 12:53:00
9:53 AM,84.0,75.0,74,30.14,10.0,SSW,9.2,-,N/A,,Partly Cloudy,210,2013-07-22 13:53:00
10:53 AM,86.0,75.0,70,30.14,10.0,SW,10.4,-,N/A,,Scattered Clouds,220,2013-07-22 14:53:00
11:53 AM,87.1,75.0,67,30.13,10.0,SSW,9.2,-,N/A,,Scattered Clouds,200,2013-07-22 15:53:00
12:53 PM,89.1,73.9,61,30.12,10.0,SW,9.2,-,N/A,,Mostly Cloudy,230,2013-07-22 16:53:00
1:53 PM,90.0,73.0,57,30.11,10.0,SW,11.5,16.1,N/A,,Partly Cloudy,230,2013-07-22 17:53:00
2:53 PM,91.0,73.0,55,30.09,10.0,SSW,10.4,-,N/A,,Partly Cloudy,200,2013-07-22 18:53:00
3:53 PM,91.9,70.0,48,30.08,10.0,SSW,15.0,19.6,N/A,,Partly Cloudy,210,2013-07-22 19:53:00
4:53 PM,84.0,72.0,67,30.08,10.0,NE,8.1,-,N/A,,Partly Cloudy,50,2013-07-22 20:53:00
5:53 PM,84.9,75.0,72,30.07,10.0,East,6.9,-,N/A,,Scattered Clouds,100,2013-07-22 21:53:00
6:31 PM,75.2,71.6,89,30.11,2.5,WNW,17.3,-,0.07,Rain,Heavy Rain,300,2013-07-22 22:31:00
6:33 PM,75.2,71.6,89,30.11,1.8,WNW,23.0,26.5,0.09,Rain-Thunderstorm,Heavy Thunderstorms and Rain,300,2013-07-22 22:33:00
6:43 PM,73.4,71.6,94,30.13,0.8,West,13.8,23.0,0.32,Rain-Thunderstorm,Heavy Thunderstorms and Rain,280,2013-07-22 22:43:00
6:53 PM,73.9,72.0,93,30.12,0.2,South,11.5,-,0.78,Fog-Rain,Heavy Rain,180,2013-07-22 22:53:00
7:04 PM,73.4,71.6,94,30.11,1.0,ESE,12.7,-,0.18,Rain,Rain,120,2013-07-22 23:04:00
7:07 PM,73.4,69.8,88,30.12,3.0,ESE,15.0,-,0.19,Rain,Rain,110,2013-07-22 23:07:00
7:11 PM,73.4,69.8,88,30.12,6.0,ESE,11.5,-,0.19,Rain,Light Rain,120,2013-07-22 23:11:00
7:53 PM,75.0,71.1,87,30.09,10.0,Calm,Calm,-,0.20,Rain,Light Rain,0,2013-07-22 23:53:00
8:53 PM,73.9,72.0,93,30.09,10.0,WSW,4.6,-,0.00,,Clear,240,2013-07-23 00:53:00
9:53 PM,75.0,72.0,90,30.10,10.0,Calm,Calm,-,N/A,,Partly Cloudy,0,2013-07-23 01:53:00
10:53 PM,75.0,73.0,94,30.11,-9999.0,Calm,Calm,-,N/A,,Clear,0,2013-07-23 02:53:00
11:53 PM,75.0,73.0,94,30.11,10.0,Calm,Calm,-,N/A,,Clear,0,2013-07-23 03:53:00